sensor_id;sensor_type;location;lat;lon;timestamp;temperature;humidity
68609;SHT31;55581;46.718;7.690;2023-08-08T00:01:25;12.29;81.41
68609;SHT31;55581;46.718;7.690;2023-08-08T00:03:50;12.39;81.70
68609;SHT31;55581;46.718;7.690;2023-08-08T00:06:16;12.48;80.48
68609;SHT31;55581;46.718;7.690;2023-08-08T00:08:41;12.55;79.03
68609;SHT31;55581;46.718;7.690;2023-08-08T00:11:06;12.59;79.33
68609;SHT31;55581;46.718;7.690;2023-08-08T00:13:34;12.61;79.04
68609;SHT31;55581;46.718;7.690;2023-08-08T00:16:02;12.76;78.43
68609;SHT31;55581;46.718;7.690;2023-08-08T00:18:28;12.80;79.63
68609;SHT31;55581;46.718;7.690;2023-08-08T00:20:53;12.79;78.46
68609;SHT31;55581;46.718;7.690;2023-08-08T00:23:19;12.72;79.54
68609;SHT31;55581;46.718;7.690;2023-08-08T00:25:44;12.79;78.29
68609;SHT31;55581;46.718;7.690;2023-08-08T00:28:15;12.86;77.44
68609;SHT31;55581;46.718;7.690;2023-08-08T00:30:40;12.86;77.72
68609;SHT31;55581;46.718;7.690;2023-08-08T00:33:08;12.83;78.95
68609;SHT31;55581;46.718;7.690;2023-08-08T00:35:34;12.70;80.44
68609;SHT31;55581;46.718;7.690;2023-08-08T00:37:59;12.52;81.04
68609;SHT31;55581;46.718;7.690;2023-08-08T00:40:27;12.40;81.89
68609;SHT31;55581;46.718;7.690;2023-08-08T00:42:52;12.35;81.77
68609;SHT31;55581;46.718;7.690;2023-08-08T00:45:18;12.28;81.73
68609;SHT31;55581;46.718;7.690;2023-08-08T00:47:43;12.40;79.95
68609;SHT31;55581;46.718;7.690;2023-08-08T00:50:11;12.45;79.83
68609;SHT31;55581;46.718;7.690;2023-08-08T00:52:37;12.57;79.64
68609;SHT31;55581;46.718;7.690;2023-08-08T00:55:04;12.73;79.13
68609;SHT31;55581;46.718;7.690;2023-08-08T00:57:30;12.83;80.03
68609;SHT31;55581;46.718;7.690;2023-08-08T00:59:55;12.84;81.05
68609;SHT31;55581;46.718;7.690;2023-08-08T01:02:21;12.83;81.80
68609;SHT31;55581;46.718;7.690;2023-08-08T01:04:46;12.84;81.10
68609;SHT31;55581;46.718;7.690;2023-08-08T01:07:22;12.83;81.48
68609;SHT31;55581;46.718;7.690;2023-08-08T01:10:01;12.86;81.59
68609;SHT31;55581;46.718;7.690;2023-08-08T01:12:34;12.86;81.04
68609;SHT31;55581;46.718;7.690;2023-08-08T01:15:05;12.93;79.80
68609;SHT31;55581;46.718;7.690;2023-08-08T01:17:32;12.91;79.21
68609;SHT31;55581;46.718;7.690;2023-08-08T01:19:58;12.88;80.04
68609;SHT31;55581;46.718;7.690;2023-08-08T01:22:30;12.83;80.40
68609;SHT31;55581;46.718;7.690;2023-08-08T01:24:58;12.67;80.76
68609;SHT31;55581;46.718;7.690;2023-08-08T01:27:24;12.59;82.18
68609;SHT31;55581;46.718;7.690;2023-08-08T01:29:50;12.52;80.48
68609;SHT31;55581;46.718;7.690;2023-08-08T01:32:15;12.55;81.07
68609;SHT31;55581;46.718;7.690;2023-08-08T01:34:43;12.52;80.68
68609;SHT31;55581;46.718;7.690;2023-08-08T01:37:17;12.48;80.54
68609;SHT31;55581;46.718;7.690;2023-08-08T01:39:46;12.43;80.72
68609;SHT31;55581;46.718;7.690;2023-08-08T01:42:14;12.49;79.73
68609;SHT31;55581;46.718;7.690;2023-08-08T01:44:41;12.53;79.86
68609;SHT31;55581;46.718;7.690;2023-08-08T01:47:09;12.56;79.87
68609;SHT31;55581;46.718;7.690;2023-08-08T01:49:40;12.49;80.26
68609;SHT31;55581;46.718;7.690;2023-08-08T01:52:09;12.39;81.34
68609;SHT31;55581;46.718;7.690;2023-08-08T01:54:35;12.39;80.89
68609;SHT31;55581;46.718;7.690;2023-08-08T01:57:00;12.36;81.24
68609;SHT31;55581;46.718;7.690;2023-08-08T01:59:28;12.31;81.93
68609;SHT31;55581;46.718;7.690;2023-08-08T02:01:53;12.22;83.18
68609;SHT31;55581;46.718;7.690;2023-08-08T02:04:20;12.14;83.56
68609;SHT31;55581;46.718;7.690;2023-08-08T02:06:45;12.14;83.08
68609;SHT31;55581;46.718;7.690;2023-08-08T02:09:11;12.17;82.83
68609;SHT31;55581;46.718;7.690;2023-08-08T02:11:36;12.14;82.56
68609;SHT31;55581;46.718;7.690;2023-08-08T02:14:02;12.17;82.65
68609;SHT31;55581;46.718;7.690;2023-08-08T02:16:27;12.32;81.90
68609;SHT31;55581;46.718;7.690;2023-08-08T02:18:53;12.43;81.58
68609;SHT31;55581;46.718;7.690;2023-08-08T02:21:18;12.55;81.20
68609;SHT31;55581;46.718;7.690;2023-08-08T02:23:43;12.63;80.84
68609;SHT31;55581;46.718;7.690;2023-08-08T02:26:09;12.64;81.36
68609;SHT31;55581;46.718;7.690;2023-08-08T02:28:34;12.66;80.56
68609;SHT31;55581;46.718;7.690;2023-08-08T02:31:00;12.64;80.58
68609;SHT31;55581;46.718;7.690;2023-08-08T02:33:28;12.60;81.08
68609;SHT31;55581;46.718;7.690;2023-08-08T02:35:53;12.52;81.81
68609;SHT31;55581;46.718;7.690;2023-08-08T02:38:19;12.46;82.14
68609;SHT31;55581;46.718;7.690;2023-08-08T02:40:44;12.48;82.66
68609;SHT31;55581;46.718;7.690;2023-08-08T02:43:09;12.50;83.87
68609;SHT31;55581;46.718;7.690;2023-08-08T02:45:36;12.55;84.05
68609;SHT31;55581;46.718;7.690;2023-08-08T02:48:01;12.56;83.67
68609;SHT31;55581;46.718;7.690;2023-08-08T02:50:27;12.63;83.44
68609;SHT31;55581;46.718;7.690;2023-08-08T02:52:52;12.59;82.88
68609;SHT31;55581;46.718;7.690;2023-08-08T02:55:18;12.60;82.82
68609;SHT31;55581;46.718;7.690;2023-08-08T02:57:43;12.56;83.51
68609;SHT31;55581;46.718;7.690;2023-08-08T03:00:09;12.56;83.71
68609;SHT31;55581;46.718;7.690;2023-08-08T03:02:37;12.53;83.72
68609;SHT31;55581;46.718;7.690;2023-08-08T03:05:05;12.46;83.88
68609;SHT31;55581;46.718;7.690;2023-08-08T03:07:31;12.49;83.90
68609;SHT31;55581;46.718;7.690;2023-08-08T03:09:56;12.48;84.08
68609;SHT31;55581;46.718;7.690;2023-08-08T03:12:24;12.39;84.09
68609;SHT31;55581;46.718;7.690;2023-08-08T03:14:50;12.40;84.32
68609;SHT31;55581;46.718;7.690;2023-08-08T03:17:15;12.33;84.72
68609;SHT31;55581;46.718;7.690;2023-08-08T03:19:40;12.32;84.91
68609;SHT31;55581;46.718;7.690;2023-08-08T03:22:08;12.33;84.71
68609;SHT31;55581;46.718;7.690;2023-08-08T03:24:33;12.38;84.44
68609;SHT31;55581;46.718;7.690;2023-08-08T03:26:59;12.40;84.43
68609;SHT31;55581;46.718;7.690;2023-08-08T03:29:24;12.40;84.43
68609;SHT31;55581;46.718;7.690;2023-08-08T03:31:50;12.46;83.90
68609;SHT31;55581;46.718;7.690;2023-08-08T03:34:15;12.45;84.23
68609;SHT31;55581;46.718;7.690;2023-08-08T03:36:41;12.36;84.46
68609;SHT31;55581;46.718;7.690;2023-08-08T03:39:07;12.39;84.90
68609;SHT31;55581;46.718;7.690;2023-08-08T03:41:33;12.42;84.98
68609;SHT31;55581;46.718;7.690;2023-08-08T03:43:58;12.45;84.83
68609;SHT31;55581;46.718;7.690;2023-08-08T03:46:24;12.46;84.91
68609;SHT31;55581;46.718;7.690;2023-08-08T03:48:52;12.43;84.42
68609;SHT31;55581;46.718;7.690;2023-08-08T03:51:17;12.45;84.29
68609;SHT31;55581;46.718;7.690;2023-08-08T03:53:45;12.38;84.30
68609;SHT31;55581;46.718;7.690;2023-08-08T03:56:10;12.39;84.26
68609;SHT31;55581;46.718;7.690;2023-08-08T03:58:37;12.35;84.32
68609;SHT31;55581;46.718;7.690;2023-08-08T04:01:02;12.33;84.35
68609;SHT31;55581;46.718;7.690;2023-08-08T04:03:28;12.31;83.91
68609;SHT31;55581;46.718;7.690;2023-08-08T04:05:53;12.26;83.16
68609;SHT31;55581;46.718;7.690;2023-08-08T04:08:19;12.21;82.51
68609;SHT31;55581;46.718;7.690;2023-08-08T04:10:46;12.20;82.07
68609;SHT31;55581;46.718;7.690;2023-08-08T04:13:14;12.18;82.02
68609;SHT31;55581;46.718;7.690;2023-08-08T04:15:40;12.10;82.16
68609;SHT31;55581;46.718;7.690;2023-08-08T04:18:05;12.11;81.93
68609;SHT31;55581;46.718;7.690;2023-08-08T04:20:34;12.10;82.32
68609;SHT31;55581;46.718;7.690;2023-08-08T04:23:00;12.05;82.63
68609;SHT31;55581;46.718;7.690;2023-08-08T04:25:26;11.99;81.80
68609;SHT31;55581;46.718;7.690;2023-08-08T04:27:51;11.95;82.17
68609;SHT31;55581;46.718;7.690;2023-08-08T04:30:16;11.98;82.11
68609;SHT31;55581;46.718;7.690;2023-08-08T04:32:42;11.91;82.65
68609;SHT31;55581;46.718;7.690;2023-08-08T04:35:07;11.90;82.55
68609;SHT31;55581;46.718;7.690;2023-08-08T04:37:33;11.93;82.44
68609;SHT31;55581;46.718;7.690;2023-08-08T04:39:58;11.93;82.50
68609;SHT31;55581;46.718;7.690;2023-08-08T04:42:24;11.95;82.31
68609;SHT31;55581;46.718;7.690;2023-08-08T04:44:49;11.97;82.55
68609;SHT31;55581;46.718;7.690;2023-08-08T04:47:14;11.93;82.31
68609;SHT31;55581;46.718;7.690;2023-08-08T04:49:42;11.97;81.84
68609;SHT31;55581;46.718;7.690;2023-08-08T04:52:10;12.05;82.23
68609;SHT31;55581;46.718;7.690;2023-08-08T04:54:35;12.05;82.57
68609;SHT31;55581;46.718;7.690;2023-08-08T04:57:01;12.08;82.64
68609;SHT31;55581;46.718;7.690;2023-08-08T04:59:26;12.12;83.18
68609;SHT31;55581;46.718;7.690;2023-08-08T05:01:52;12.17;82.56
68609;SHT31;55581;46.718;7.690;2023-08-08T05:04:18;12.29;83.10
68609;SHT31;55581;46.718;7.690;2023-08-08T05:06:43;12.28;82.56
68609;SHT31;55581;46.718;7.690;2023-08-08T05:09:11;12.40;82.12
68609;SHT31;55581;46.718;7.690;2023-08-08T05:11:36;12.45;81.89
68609;SHT31;55581;46.718;7.690;2023-08-08T05:14:02;12.52;81.75
68609;SHT31;55581;46.718;7.690;2023-08-08T05:16:28;12.59;81.57
68609;SHT31;55581;46.718;7.690;2023-08-08T05:18:55;12.64;81.56
68609;SHT31;55581;46.718;7.690;2023-08-08T05:21:21;12.61;82.22
68609;SHT31;55581;46.718;7.690;2023-08-08T05:23:46;12.61;82.40
68609;SHT31;55581;46.718;7.690;2023-08-08T05:26:13;12.73;82.43
68609;SHT31;55581;46.718;7.690;2023-08-08T05:28:41;12.81;82.84
68609;SHT31;55581;46.718;7.690;2023-08-08T05:31:09;12.75;82.29
68609;SHT31;55581;46.718;7.690;2023-08-08T05:33:37;12.84;82.23
68609;SHT31;55581;46.718;7.690;2023-08-08T05:36:02;12.94;82.31
68609;SHT31;55581;46.718;7.690;2023-08-08T05:38:28;13.01;82.46
68609;SHT31;55581;46.718;7.690;2023-08-08T05:40:53;13.15;82.76
68609;SHT31;55581;46.718;7.690;2023-08-08T05:43:19;13.21;82.20
68609;SHT31;55581;46.718;7.690;2023-08-08T05:45:46;13.31;82.29
68609;SHT31;55581;46.718;7.690;2023-08-08T05:48:11;13.36;82.68
68609;SHT31;55581;46.718;7.690;2023-08-08T05:50:38;13.42;82.54
68609;SHT31;55581;46.718;7.690;2023-08-08T05:53:04;13.58;82.13
68609;SHT31;55581;46.718;7.690;2023-08-08T05:55:31;13.62;82.00
68609;SHT31;55581;46.718;7.690;2023-08-08T05:57:57;13.65;81.54
68609;SHT31;55581;46.718;7.690;2023-08-08T06:00:22;13.71;81.14
68609;SHT31;55581;46.718;7.690;2023-08-08T06:02:48;13.70;81.26
68609;SHT31;55581;46.718;7.690;2023-08-08T06:05:14;13.73;80.70
68609;SHT31;55581;46.718;7.690;2023-08-08T06:07:39;13.77;81.62
68609;SHT31;55581;46.718;7.690;2023-08-08T06:10:07;13.80;81.32
68609;SHT31;55581;46.718;7.690;2023-08-08T06:12:33;13.83;81.61
68609;SHT31;55581;46.718;7.690;2023-08-08T06:14:59;13.81;82.27
68609;SHT31;55581;46.718;7.690;2023-08-08T06:17:24;13.86;82.12
68609;SHT31;55581;46.718;7.690;2023-08-08T06:19:52;13.77;82.85
68609;SHT31;55581;46.718;7.690;2023-08-08T06:22:19;13.93;82.49
68609;SHT31;55581;46.718;7.690;2023-08-08T06:24:44;14.07;81.93
68609;SHT31;55581;46.718;7.690;2023-08-08T06:27:10;14.18;81.49
68609;SHT31;55581;46.718;7.690;2023-08-08T06:29:35;14.29;79.06
68609;SHT31;55581;46.718;7.690;2023-08-08T06:32:01;14.48;78.88
68609;SHT31;55581;46.718;7.690;2023-08-08T06:34:26;14.56;78.20
68609;SHT31;55581;46.718;7.690;2023-08-08T06:36:52;14.70;77.85
68609;SHT31;55581;46.718;7.690;2023-08-08T06:39:18;14.75;77.39
68609;SHT31;55581;46.718;7.690;2023-08-08T06:41:48;14.81;77.48
68609;SHT31;55581;46.718;7.690;2023-08-08T06:44:14;14.84;76.69
68609;SHT31;55581;46.718;7.690;2023-08-08T06:46:39;14.75;76.76
68609;SHT31;55581;46.718;7.690;2023-08-08T06:49:04;14.83;76.68
68609;SHT31;55581;46.718;7.690;2023-08-08T06:51:32;14.93;74.72
68609;SHT31;55581;46.718;7.690;2023-08-08T06:53:57;14.89;76.69
68609;SHT31;55581;46.718;7.690;2023-08-08T06:56:23;14.90;76.29
68609;SHT31;55581;46.718;7.690;2023-08-08T06:58:50;15.03;76.10
68609;SHT31;55581;46.718;7.690;2023-08-08T07:01:18;15.10;75.64
68609;SHT31;55581;46.718;7.690;2023-08-08T07:03:44;15.23;74.30
68609;SHT31;55581;46.718;7.690;2023-08-08T07:06:12;15.30;73.21
68609;SHT31;55581;46.718;7.690;2023-08-08T07:08:38;15.31;75.31
68609;SHT31;55581;46.718;7.690;2023-08-08T07:11:11;15.30;73.52
68609;SHT31;55581;46.718;7.690;2023-08-08T07:13:36;15.48;72.92
68609;SHT31;55581;46.718;7.690;2023-08-08T07:16:02;15.55;74.47
68609;SHT31;55581;46.718;7.690;2023-08-08T07:18:27;15.62;73.68
68609;SHT31;55581;46.718;7.690;2023-08-08T07:20:53;15.86;72.47
68609;SHT31;55581;46.718;7.690;2023-08-08T07:23:18;15.94;72.49
68609;SHT31;55581;46.718;7.690;2023-08-08T07:25:45;16.10;70.18
68609;SHT31;55581;46.718;7.690;2023-08-08T07:28:12;16.04;71.11
68609;SHT31;55581;46.718;7.690;2023-08-08T07:30:37;16.07;72.42
68609;SHT31;55581;46.718;7.690;2023-08-08T07:33:03;16.10;72.19
68609;SHT31;55581;46.718;7.690;2023-08-08T07:35:28;16.16;71.17
68609;SHT31;55581;46.718;7.690;2023-08-08T07:37:53;16.17;71.52
68609;SHT31;55581;46.718;7.690;2023-08-08T07:40:20;16.28;71.06
68609;SHT31;55581;46.718;7.690;2023-08-08T07:42:47;16.21;72.05
68609;SHT31;55581;46.718;7.690;2023-08-08T07:45:14;16.25;71.11
68609;SHT31;55581;46.718;7.690;2023-08-08T07:47:39;16.34;70.63
68609;SHT31;55581;46.718;7.690;2023-08-08T07:50:05;16.34;70.59
68609;SHT31;55581;46.718;7.690;2023-08-08T07:52:34;16.41;70.82
68609;SHT31;55581;46.718;7.690;2023-08-08T07:54:59;16.64;71.31
68609;SHT31;55581;46.718;7.690;2023-08-08T07:57:27;16.68;70.15
68609;SHT31;55581;46.718;7.690;2023-08-08T07:59:52;16.55;68.94
68609;SHT31;55581;46.718;7.690;2023-08-08T08:02:20;16.66;69.53
68609;SHT31;55581;46.718;7.690;2023-08-08T08:04:46;16.48;68.96
68609;SHT31;55581;46.718;7.690;2023-08-08T08:07:11;16.51;69.53
68609;SHT31;55581;46.718;7.690;2023-08-08T08:09:37;16.73;69.86
68609;SHT31;55581;46.718;7.690;2023-08-08T08:12:07;16.93;68.60
68609;SHT31;55581;46.718;7.690;2023-08-08T08:14:33;16.89;67.27
68609;SHT31;55581;46.718;7.690;2023-08-08T08:17:00;16.92;67.95
68609;SHT31;55581;46.718;7.690;2023-08-08T08:19:26;17.16;65.61
68609;SHT31;55581;46.718;7.690;2023-08-08T08:21:51;17.09;68.09
68609;SHT31;55581;46.718;7.690;2023-08-08T08:24:19;17.20;68.19
68609;SHT31;55581;46.718;7.690;2023-08-08T08:26:48;17.44;66.65
68609;SHT31;55581;46.718;7.690;2023-08-08T08:29:13;17.64;66.30
68609;SHT31;55581;46.718;7.690;2023-08-08T08:31:39;17.68;65.22
68609;SHT31;55581;46.718;7.690;2023-08-08T08:34:07;17.75;66.74
68609;SHT31;55581;46.718;7.690;2023-08-08T08:36:32;17.75;65.60
68609;SHT31;55581;46.718;7.690;2023-08-08T08:38:58;17.97;65.54
68609;SHT31;55581;46.718;7.690;2023-08-08T08:41:27;17.89;64.16
68609;SHT31;55581;46.718;7.690;2023-08-08T08:43:54;17.90;66.46
68609;SHT31;55581;46.718;7.690;2023-08-08T08:46:21;18.23;64.49
68609;SHT31;55581;46.718;7.690;2023-08-08T08:48:51;18.34;64.27
68609;SHT31;55581;46.718;7.690;2023-08-08T08:51:20;18.57;62.30
68609;SHT31;55581;46.718;7.690;2023-08-08T08:53:45;18.41;63.01
68609;SHT31;55581;46.718;7.690;2023-08-08T08:56:13;18.44;63.49
68609;SHT31;55581;46.718;7.690;2023-08-08T08:58:39;18.30;63.99
68609;SHT31;55581;46.718;7.690;2023-08-08T09:01:05;18.18;62.39
68609;SHT31;55581;46.718;7.690;2023-08-08T09:03:32;18.17;62.39
68609;SHT31;55581;46.718;7.690;2023-08-08T09:05:58;18.31;61.95
68609;SHT31;55581;46.718;7.690;2023-08-08T09:08:24;18.33;61.80
68609;SHT31;55581;46.718;7.690;2023-08-08T09:10:50;18.51;62.39
68609;SHT31;55581;46.718;7.690;2023-08-08T09:13:16;18.54;59.85
68609;SHT31;55581;46.718;7.690;2023-08-08T09:15:41;18.68;58.49
68609;SHT31;55581;46.718;7.690;2023-08-08T09:18:07;18.76;60.84
68609;SHT31;55581;46.718;7.690;2023-08-08T09:20:33;18.54;59.88
68609;SHT31;55581;46.718;7.690;2023-08-08T09:22:58;18.67;59.65
68609;SHT31;55581;46.718;7.690;2023-08-08T09:25:24;18.64;61.86
68609;SHT31;55581;46.718;7.690;2023-08-08T09:27:51;18.85;60.03
68609;SHT31;55581;46.718;7.690;2023-08-08T09:30:18;18.68;58.63
68609;SHT31;55581;46.718;7.690;2023-08-08T09:32:47;18.79;59.50
68609;SHT31;55581;46.718;7.690;2023-08-08T09:35:13;19.06;59.27
68609;SHT31;55581;46.718;7.690;2023-08-08T09:37:39;19.14;57.14
68609;SHT31;55581;46.718;7.690;2023-08-08T09:40:05;19.26;59.30
68609;SHT31;55581;46.718;7.690;2023-08-08T09:42:33;19.40;58.26
68609;SHT31;55581;46.718;7.690;2023-08-08T09:45:00;19.51;58.14
68609;SHT31;55581;46.718;7.690;2023-08-08T09:47:26;19.67;56.73
68609;SHT31;55581;46.718;7.690;2023-08-08T09:49:59;19.57;55.55
68609;SHT31;55581;46.718;7.690;2023-08-08T09:52:28;19.69;54.51
68609;SHT31;55581;46.718;7.690;2023-08-08T09:54:55;19.61;55.09
68609;SHT31;55581;46.718;7.690;2023-08-08T09:57:21;19.77;55.95
68609;SHT31;55581;46.718;7.690;2023-08-08T09:59:47;19.95;54.13
68609;SHT31;55581;46.718;7.690;2023-08-08T10:02:14;19.95;51.89
68609;SHT31;55581;46.718;7.690;2023-08-08T10:04:41;20.12;55.10
68609;SHT31;55581;46.718;7.690;2023-08-08T10:07:06;20.27;54.27
68609;SHT31;55581;46.718;7.690;2023-08-08T10:09:32;20.15;54.45
68609;SHT31;55581;46.718;7.690;2023-08-08T10:11:59;19.82;55.50
68609;SHT31;55581;46.718;7.690;2023-08-08T10:14:31;19.88;56.63
68609;SHT31;55581;46.718;7.690;2023-08-08T10:16:57;20.09;57.29
68609;SHT31;55581;46.718;7.690;2023-08-08T10:19:24;20.26;55.69
68609;SHT31;55581;46.718;7.690;2023-08-08T10:21:58;20.33;55.00
68609;SHT31;55581;46.718;7.690;2023-08-08T10:24:36;20.32;54.19
68609;SHT31;55581;46.718;7.690;2023-08-08T10:27:02;20.22;56.12
68609;SHT31;55581;46.718;7.690;2023-08-08T10:29:37;20.30;55.84
68609;SHT31;55581;46.718;7.690;2023-08-08T10:32:05;20.41;54.43
68609;SHT31;55581;46.718;7.690;2023-08-08T10:34:39;20.47;53.59
68609;SHT31;55581;46.718;7.690;2023-08-08T10:37:08;20.64;54.56
68609;SHT31;55581;46.718;7.690;2023-08-08T10:39:34;20.68;53.17
68609;SHT31;55581;46.718;7.690;2023-08-08T10:42:03;20.71;52.90
68609;SHT31;55581;46.718;7.690;2023-08-08T10:44:28;20.89;53.54
68609;SHT31;55581;46.718;7.690;2023-08-08T10:46:55;21.00;52.76
68609;SHT31;55581;46.718;7.690;2023-08-08T10:49:23;21.13;50.26
68609;SHT31;55581;46.718;7.690;2023-08-08T10:51:49;20.84;51.92
68609;SHT31;55581;46.718;7.690;2023-08-08T10:54:22;20.78;51.69
68609;SHT31;55581;46.718;7.690;2023-08-08T10:56:56;20.60;52.13
68609;SHT31;55581;46.718;7.690;2023-08-08T10:59:23;20.55;53.77
68609;SHT31;55581;46.718;7.690;2023-08-08T11:01:50;20.58;52.76
68609;SHT31;55581;46.718;7.690;2023-08-08T11:04:19;20.78;52.07
68609;SHT31;55581;46.718;7.690;2023-08-08T11:06:47;20.74;53.17
68609;SHT31;55581;46.718;7.690;2023-08-08T11:09:16;20.82;54.00
68609;SHT31;55581;46.718;7.690;2023-08-08T11:11:47;20.99;53.55
68609;SHT31;55581;46.718;7.690;2023-08-08T11:14:15;21.25;53.84
68609;SHT31;55581;46.718;7.690;2023-08-08T11:16:42;21.33;51.98
68609;SHT31;55581;46.718;7.690;2023-08-08T11:19:08;21.32;52.29
68609;SHT31;55581;46.718;7.690;2023-08-08T11:21:39;21.46;52.36
68609;SHT31;55581;46.718;7.690;2023-08-08T11:24:06;21.30;52.64
68609;SHT31;55581;46.718;7.690;2023-08-08T11:26:37;21.33;51.32
68609;SHT31;55581;46.718;7.690;2023-08-08T11:29:04;21.65;52.94
68609;SHT31;55581;46.718;7.690;2023-08-08T11:31:31;21.71;51.28
68609;SHT31;55581;46.718;7.690;2023-08-08T11:34:00;21.63;51.50
68609;SHT31;55581;46.718;7.690;2023-08-08T11:36:29;21.64;50.54
68609;SHT31;55581;46.718;7.690;2023-08-08T11:38:56;21.80;51.58
68609;SHT31;55581;46.718;7.690;2023-08-08T11:41:23;21.91;51.36
68609;SHT31;55581;46.718;7.690;2023-08-08T11:43:50;22.12;49.13
68609;SHT31;55581;46.718;7.690;2023-08-08T11:46:16;21.92;50.45
68609;SHT31;55581;46.718;7.690;2023-08-08T11:48:46;22.01;50.52
68609;SHT31;55581;46.718;7.690;2023-08-08T11:51:14;22.10;51.96
68609;SHT31;55581;46.718;7.690;2023-08-08T11:53:51;22.36;49.45
68609;SHT31;55581;46.718;7.690;2023-08-08T11:56:20;22.02;49.20
68609;SHT31;55581;46.718;7.690;2023-08-08T11:58:51;22.04;50.45
68609;SHT31;55581;46.718;7.690;2023-08-08T12:01:22;22.05;49.03
68609;SHT31;55581;46.718;7.690;2023-08-08T12:03:50;22.22;48.23
68609;SHT31;55581;46.718;7.690;2023-08-08T12:06:17;22.46;49.27
68609;SHT31;55581;46.718;7.690;2023-08-08T12:08:44;22.37;47.20
68609;SHT31;55581;46.718;7.690;2023-08-08T12:11:13;22.35;47.01
68609;SHT31;55581;46.718;7.690;2023-08-08T12:13:44;22.43;49.51
68609;SHT31;55581;46.718;7.690;2023-08-08T12:16:13;22.74;48.10
68609;SHT31;55581;46.718;7.690;2023-08-08T12:18:41;22.86;48.03
68609;SHT31;55581;46.718;7.690;2023-08-08T12:21:08;23.05;46.95
68609;SHT31;55581;46.718;7.690;2023-08-08T12:23:34;23.00;47.10
68609;SHT31;55581;46.718;7.690;2023-08-08T12:26:03;22.86;47.62
68609;SHT31;55581;46.718;7.690;2023-08-08T12:28:28;22.53;48.39
68609;SHT31;55581;46.718;7.690;2023-08-08T12:30:59;22.75;49.36
68609;SHT31;55581;46.718;7.690;2023-08-08T12:33:24;23.05;49.16
68609;SHT31;55581;46.718;7.690;2023-08-08T12:35:52;22.74;49.02
68609;SHT31;55581;46.718;7.690;2023-08-08T12:38:18;23.04;48.82
68609;SHT31;55581;46.718;7.690;2023-08-08T12:40:44;22.98;48.54
68609;SHT31;55581;46.718;7.690;2023-08-08T12:43:10;22.67;48.09
68609;SHT31;55581;46.718;7.690;2023-08-08T12:45:39;22.83;49.00
68609;SHT31;55581;46.718;7.690;2023-08-08T12:48:05;22.70;46.78
68609;SHT31;55581;46.718;7.690;2023-08-08T12:50:31;22.10;46.94
68609;SHT31;55581;46.718;7.690;2023-08-08T12:52:56;22.09;49.08
68609;SHT31;55581;46.718;7.690;2023-08-08T12:55:22;22.29;49.05
68609;SHT31;55581;46.718;7.690;2023-08-08T12:57:47;22.50;48.27
68609;SHT31;55581;46.718;7.690;2023-08-08T13:00:13;22.50;45.63
68609;SHT31;55581;46.718;7.690;2023-08-08T13:02:39;22.88;47.79
68609;SHT31;55581;46.718;7.690;2023-08-08T13:05:07;22.63;45.76
68609;SHT31;55581;46.718;7.690;2023-08-08T13:07:35;22.71;47.48
68609;SHT31;55581;46.718;7.690;2023-08-08T13:10:00;22.77;45.18
68609;SHT31;55581;46.718;7.690;2023-08-08T13:12:28;22.94;46.36
68609;SHT31;55581;46.718;7.690;2023-08-08T13:14:53;22.88;44.86
68609;SHT31;55581;46.718;7.690;2023-08-08T13:17:21;22.78;46.31
68609;SHT31;55581;46.718;7.690;2023-08-08T13:19:46;22.86;45.94
68609;SHT31;55581;46.718;7.690;2023-08-08T13:22:12;22.98;47.89
68609;SHT31;55581;46.718;7.690;2023-08-08T13:24:38;22.97;47.03
68609;SHT31;55581;46.718;7.690;2023-08-08T13:27:03;23.00;45.10
68609;SHT31;55581;46.718;7.690;2023-08-08T13:29:29;22.97;45.28
68609;SHT31;55581;46.718;7.690;2023-08-08T13:31:55;22.97;44.71
68609;SHT31;55581;46.718;7.690;2023-08-08T13:34:21;23.20;45.55
68609;SHT31;55581;46.718;7.690;2023-08-08T13:36:46;23.70;44.68
68609;SHT31;55581;46.718;7.690;2023-08-08T13:39:12;24.28;45.50
68609;SHT31;55581;46.718;7.690;2023-08-08T13:41:38;24.28;45.33
68609;SHT31;55581;46.718;7.690;2023-08-08T13:44:04;24.38;45.65
68609;SHT31;55581;46.718;7.690;2023-08-08T13:46:29;24.57;42.41
68609;SHT31;55581;46.718;7.690;2023-08-08T13:48:57;24.49;42.97
68609;SHT31;55581;46.718;7.690;2023-08-08T13:51:22;24.38;42.57
68609;SHT31;55581;46.718;7.690;2023-08-08T13:53:48;24.35;45.32
68609;SHT31;55581;46.718;7.690;2023-08-08T13:56:17;24.29;45.30
68609;SHT31;55581;46.718;7.690;2023-08-08T13:58:45;24.30;46.38
68609;SHT31;55581;46.718;7.690;2023-08-08T14:01:10;24.11;45.86
68609;SHT31;55581;46.718;7.690;2023-08-08T14:03:38;24.35;43.89
68609;SHT31;55581;46.718;7.690;2023-08-08T14:06:06;24.49;43.78
68609;SHT31;55581;46.718;7.690;2023-08-08T14:08:31;24.40;44.29
68609;SHT31;55581;46.718;7.690;2023-08-08T14:10:59;24.49;45.73
68609;SHT31;55581;46.718;7.690;2023-08-08T14:13:25;24.66;44.47
68609;SHT31;55581;46.718;7.690;2023-08-08T14:15:51;24.33;45.55
68609;SHT31;55581;46.718;7.690;2023-08-08T14:18:17;24.66;45.09
68609;SHT31;55581;46.718;7.690;2023-08-08T14:20:42;24.70;44.33
68609;SHT31;55581;46.718;7.690;2023-08-08T14:23:10;24.82;45.70
68609;SHT31;55581;46.718;7.690;2023-08-08T14:25:35;24.80;44.34
68609;SHT31;55581;46.718;7.690;2023-08-08T14:28:01;24.80;43.72
68609;SHT31;55581;46.718;7.690;2023-08-08T14:30:30;25.04;44.35
68609;SHT31;55581;46.718;7.690;2023-08-08T14:32:58;24.90;43.57
68609;SHT31;55581;46.718;7.690;2023-08-08T14:35:23;24.51;43.55
68609;SHT31;55581;46.718;7.690;2023-08-08T14:37:48;24.53;44.20
68609;SHT31;55581;46.718;7.690;2023-08-08T14:40:14;24.25;45.98
68609;SHT31;55581;46.718;7.690;2023-08-08T14:42:39;24.21;45.97
68609;SHT31;55581;46.718;7.690;2023-08-08T14:45:08;23.84;44.82
68609;SHT31;55581;46.718;7.690;2023-08-08T14:47:34;23.74;46.41
68609;SHT31;55581;46.718;7.690;2023-08-08T14:49:59;23.97;44.80
68609;SHT31;55581;46.718;7.690;2023-08-08T14:52:25;23.80;44.00
68609;SHT31;55581;46.718;7.690;2023-08-08T14:54:53;23.67;44.59
68609;SHT31;55581;46.718;7.690;2023-08-08T14:57:18;23.64;45.39
68609;SHT31;55581;46.718;7.690;2023-08-08T14:59:44;23.57;43.50
68609;SHT31;55581;46.718;7.690;2023-08-08T15:02:09;23.53;44.48
68609;SHT31;55581;46.718;7.690;2023-08-08T15:04:37;23.41;43.99
68609;SHT31;55581;46.718;7.690;2023-08-08T15:07:02;23.35;45.56
68609;SHT31;55581;46.718;7.690;2023-08-08T15:09:28;23.53;45.55
68609;SHT31;55581;46.718;7.690;2023-08-08T15:11:56;23.75;44.64
68609;SHT31;55581;46.718;7.690;2023-08-08T15:14:21;24.01;44.25
68609;SHT31;55581;46.718;7.690;2023-08-08T15:16:51;23.96;46.06
68609;SHT31;55581;46.718;7.690;2023-08-08T15:19:16;23.83;44.59
68609;SHT31;55581;46.718;7.690;2023-08-08T15:21:42;23.84;45.13
68609;SHT31;55581;46.718;7.690;2023-08-08T15:24:08;24.00;43.92
68609;SHT31;55581;46.718;7.690;2023-08-08T15:26:35;24.18;45.21